»·PEaware :: AAL214 KAMA-KCOS

AAL214 :: KAMA-KCOS

FLIGHT INFORMATION

Flight Status: Arrived
Operator:
American Airlines
More flights by this operator :: More flights under this callsign
Pilot: Jim V. (20680)
Aircraft: BOEING 737-800
(B738)
More flights by this aircraft type
Origin: KAMA Amarillo Intl
United States
Destination: KCOS City Of Colorado Springs Mun
United States
More flights between these airports :: More routes between these airports
Route: TBE DBRY3
File this flight plan on PilotEdge
Remarks:
Altitude:
(Current/Filed)
30,000ft
Speed:
(Current/Filed)
428kts
Departed: 28-Mar-19 03:28 PM
Arrived: 28-Mar-19 04:19 PM
Distance/Time
Traveled:
258nm/0:51
Distance/Time
To Go:
Arrived

Flight Plot

Page will automatically refresh every two minutes.

Flight plan parsing failed; only flown route is shown


Map Options




Map Legend


Flown Route
Filed Route
Departure Airport
Arrival Airport
Navaid (VOR, NDB)
Fix

Horizontal Profiles

Position Reports

Time Latitude Longitude Heading Altitude Ground
Speed
28-Mar-19 15:12 35.218836 -101.706744 106 3614ft 0kts
28-Mar-19 15:13 35.218836 -101.706744 106 3614ft 0kts
28-Mar-19 15:14 35.218836 -101.706744 106 3614ft 0kts
28-Mar-19 15:15 35.218836 -101.706744 106 3614ft 0kts
28-Mar-19 15:16 35.218836 -101.706744 106 3614ft 0kts
28-Mar-19 15:17 35.218836 -101.706744 106 3614ft 0kts
28-Mar-19 15:18 35.218836 -101.706744 106 3614ft 0kts
28-Mar-19 15:19 35.218836 -101.706744 106 3614ft 0kts
28-Mar-19 15:20 35.218863 -101.706877 96 3614ft 3kts
28-Mar-19 15:21 35.218698 -101.707529 317 3614ft 0kts
28-Mar-19 15:22 35.218762 -101.707591 322 3614ft 7kts
28-Mar-19 15:23 35.221884 -101.706312 46 3614ft 15kts
28-Mar-19 15:24 35.225925 -101.701230 45 3614ft 23kts
28-Mar-19 15:25 35.229566 -101.699021 323 3614ft 14kts
28-Mar-19 15:26 35.229943 -101.699390 318 3614ft 0kts
28-Mar-19 15:27 35.220969 -101.712712 225 3614ft 166kts
28-Mar-19 15:28 35.182276 -101.758864 223 5926ft 236kts
28-Mar-19 15:29 35.135556 -101.827070 272 9108ft 280kts
28-Mar-19 15:30 35.199156 -101.871760 18 12015ft 341kts
28-Mar-19 15:31 35.290203 -101.860801 329 15363ft 343kts
28-Mar-19 15:32 35.369792 -101.926530 321 18524ft 355kts
28-Mar-19 15:33 35.452362 -101.997633 321 21434ft 370kts
28-Mar-19 15:34 35.537914 -102.071497 321 24027ft 385kts
28-Mar-19 15:35 35.626651 -102.148314 320 26342ft 399kts
28-Mar-19 15:36 35.718522 -102.228066 320 28430ft 412kts
28-Mar-19 15:37 35.813254 -102.310552 320 29947ft 428kts
28-Mar-19 15:38 35.913213 -102.397886 320 29955ft 445kts
28-Mar-19 15:39 36.014046 -102.486160 320 29961ft 445kts
28-Mar-19 15:40 36.114846 -102.574681 320 29958ft 445kts
28-Mar-19 15:41 36.215309 -102.663189 320 29964ft 445kts
28-Mar-19 15:42 36.316105 -102.752326 319 29964ft 444kts
28-Mar-19 15:43 36.416302 -102.841220 320 29964ft 444kts
28-Mar-19 15:44 36.516351 -102.930262 320 29970ft 444kts
28-Mar-19 15:45 36.616272 -103.019471 319 29997ft 443kts
28-Mar-19 15:47 36.716205 -103.108981 320 30003ft 443kts
28-Mar-19 15:48 36.816096 -103.198740 320 29999ft 442kts
28-Mar-19 15:49 36.915704 -103.288534 319 29998ft 442kts
28-Mar-19 15:50 37.015626 -103.378914 319 29998ft 443kts
28-Mar-19 15:51 37.116304 -103.470340 320 29997ft 459kts
28-Mar-19 15:52 37.219401 -103.564203 320 29990ft 459kts
28-Mar-19 15:53 37.315014 -103.667034 311 29989ft 452kts
28-Mar-19 15:54 37.403896 -103.773599 312 28153ft 442kts
28-Mar-19 15:55 37.492998 -103.879372 312 26424ft 441kts
28-Mar-19 15:56 37.581165 -103.983926 313 24724ft 431kts
28-Mar-19 15:57 37.667468 -104.086183 313 23025ft 422kts
28-Mar-19 15:58 37.752238 -104.186530 313 21332ft 413kts
28-Mar-19 15:59 37.835061 -104.284474 314 19827ft 405kts
28-Mar-19 16:00 37.916625 -104.380830 314 18331ft 396kts
28-Mar-19 16:01 37.996408 -104.474996 314 17121ft 390kts
28-Mar-19 16:02 38.075237 -104.567941 314 15931ft 384kts
28-Mar-19 16:03 38.166252 -104.639273 341 15889ft 394kts
28-Mar-19 16:04 38.276300 -104.648562 358 15855ft 400kts
28-Mar-19 16:05 38.380958 -104.645875 357 15921ft 339kts
28-Mar-19 16:06 38.469225 -104.644023 356 15951ft 312kts
28-Mar-19 16:07 38.555988 -104.642113 356 15950ft 312kts
28-Mar-19 16:08 38.642409 -104.632902 11 15965ft 319kts
28-Mar-19 16:09 38.729206 -104.629353 354 15951ft 311kts
28-Mar-19 16:09 38.799330 -104.615333 39 15924ft 322kts
28-Mar-19 16:11 38.787600 -104.502639 164 13946ft 304kts
28-Mar-19 16:11 38.722515 -104.490040 177 13328ft 268kts
28-Mar-19 16:12 38.652803 -104.493728 227 10741ft 242kts
28-Mar-19 16:14 38.651304 -104.585093 288 9051ft 207kts
28-Mar-19 16:14 38.666479 -104.642830 297 7953ft 206kts
28-Mar-19 16:16 38.720745 -104.686351 347 7426ft 182kts
28-Mar-19 16:16 38.758877 -104.685807 0 6642ft 157kts
28-Mar-19 16:17 38.797077 -104.685760 0 6195ft 88kts
28-Mar-19 16:18 38.802773 -104.688548 271 6195ft 7kts
28-Mar-19 16:19 38.802789 -104.694468 269 6195ft 18kts
28-Mar-19 16:20 38.800846 -104.697559 243 6195ft 11kts
28-Mar-19 16:21 38.800075 -104.700369 228 6195ft 0kts

Navigation Log

Ident Type
Flight plan parsing failed, navigation log unavailable